Time;durP1;ratioP1;P1;durP2;ratioP2;P2;SDS_P1;SDS_P2;PMS_P1;PMS_P2;Temp;Humidity;BMP_temperature;BMP_pressure;BME280_temperature;BME280_humidity;BME280_pressure;Samples;Min_cycle;Max_cycle;Signal;HPM_P1;HPM_P2
2021/10/31 00:01:59;;;;;;;36.15;25.90;;;;;;;4.24;86.13;100808.14;1830389;77;21033;-71
2021/10/31 00:04:25;;;;;;;48.73;27.17;;;;;;;4.25;86.09;100805.23;1830336;77;20984;-71
2021/10/31 00:06:51;;;;;;;56.42;27.40;;;;;;;4.16;85.98;100802.94;1831130;77;21092;-70
2021/10/31 00:09:18;;;;;;;43.83;26.82;;;;;;;4.06;86.14;100806.03;1828258;78;21469;-70
2021/10/31 00:11:45;;;;;;;38.35;24.72;;;;;;;4.05;86.28;100799.48;1828404;78;21070;-69
2021/10/31 00:14:11;;;;;;;35.10;25.77;;;;;;;4.09;86.22;100795.36;1829719;78;21498;-70
2021/10/31 00:16:38;;;;;;;38.70;26.20;;;;;;;4.03;85.93;100795.67;1828952;78;21062;-70
2021/10/31 00:19:05;;;;;;;35.30;25.80;;;;;;;3.92;85.80;100790.87;1831098;77;21009;-70
2021/10/31 00:21:31;;;;;;;67.03;28.07;;;;;;;3.87;85.71;100798.71;1831276;77;21094;-69
2021/10/31 00:23:58;;;;;;;68.65;28.25;;;;;;;3.78;85.79;100798.08;1852703;77;21013;-70
2021/10/31 00:26:24;;;;;;;49.40;30.85;;;;;;;3.69;85.97;100791.19;1833647;77;21067;-70
2021/10/31 00:28:51;;;;;;;41.30;28.30;;;;;;;3.68;86.08;100789.55;1842422;77;20997;-70
2021/10/31 00:31:17;;;;;;;43.75;29.80;;;;;;;3.74;86.06;100794.13;1854164;77;20971;-69
2021/10/31 00:33:43;;;;;;;41.23;27.27;;;;;;;3.72;85.88;100790.78;1838275;77;21416;-70
2021/10/31 00:36:10;;;;;;;43.87;28.45;;;;;;;3.72;85.77;100784.05;1845974;77;21088;-69
2021/10/31 00:38:36;;;;;;;39.45;28.47;;;;;;;3.66;85.63;100783.52;1854984;77;21002;-69
2021/10/31 00:41:02;;;;;;;45.15;27.73;;;;;;;3.59;85.59;100782.67;1834954;77;20998;-69
2021/10/31 00:43:28;;;;;;;36.88;25.80;;;;;;;3.50;85.74;100785.23;1833814;77;21005;-69
2021/10/31 00:45:55;;;;;;;31.68;24.55;;;;;;;3.45;85.82;100793.06;1843539;77;21885;-69
2021/10/31 00:48:21;;;;;;;36.48;27.37;;;;;;;3.39;85.63;100783.10;1829523;78;21025;-69
2021/10/31 00:50:50;;;;;;;37.15;27.55;;;;;;;3.31;85.49;100781.41;1829329;78;21520;-69
2021/10/31 00:53:17;;;;;;;36.55;27.45;;;;;;;3.28;85.51;100771.55;1830917;77;21539;-69
2021/10/31 00:55:43;;;;;;;37.25;27.17;;;;;;;3.20;85.60;100771.20;1831336;77;20938;-69
2021/10/31 00:58:12;;;;;;;;;;;;;;;3.10;85.76;100779.31;1840810;77;21093;-69
2021/10/31 01:00:39;;;;;;;36.70;26.70;;;;;;;3.04;85.94;100778.26;1831251;77;20108;-69
2021/10/31 01:03:06;;;;;;;36.38;26.93;;;;;;;3.00;86.04;100776.48;1845946;77;21097;-69
2021/10/31 01:05:39;;;;;;;33.75;24.67;;;;;;;3.01;86.08;100777.31;1829533;77;21005;-69
2021/10/31 01:08:25;;;;;;;36.08;25.92;;;;;;;3.03;86.03;100765.83;1829137;78;21092;-69
2021/10/31 01:11:06;;;;;;;37.08;27.02;;;;;;;3.00;86.03;100767.57;1827402;77;20972;-69
2021/10/31 01:14:13;;;;;;;38.48;27.52;;;;;;;2.91;86.22;100766.88;1839423;77;21515;-69
2021/10/31 01:17:20;;;;;;;44.93;28.65;;;;;;;2.88;86.38;100766.45;1829609;77;21026;-69
2021/10/31 01:20:16;;;;;;;35.38;25.75;;;;;;;2.90;86.38;100769.79;1829183;78;21025;-69
2021/10/31 01:23:18;;;;;;;40.78;27.67;;;;;;;2.90;86.35;100764.41;1842300;77;21097;-70
2021/10/31 01:25:58;;;;;;;40.88;27.13;;;;;;;2.88;86.35;100765.94;1854746;77;20983;-69
2021/10/31 01:28:42;;;;;;;41.35;27.05;;;;;;;2.85;86.46;100761.47;1842489;77;21567;-69
2021/10/31 01:31:31;;;;;;;40.88;29.57;;;;;;;2.79;86.67;100760.92;1829170;78;21066;-69
2021/10/31 01:34:04;;;;;;;40.65;28.52;;;;;;;2.77;86.85;100763.78;1828803;77;21053;-68
2021/10/31 01:37:05;;;;;;;36.30;25.95;;;;;;;2.79;86.76;100755.03;1837393;77;21116;-69
2021/10/31 01:39:50;;;;;;;41.68;29.40;;;;;;;2.82;86.70;100753.80;1829281;78;21018;-70
2021/10/31 01:42:30;;;;;;;39.95;27.93;;;;;;;2.81;86.67;100750.27;1829444;78;21108;-69
2021/10/31 01:45:20;;;;;;;38.15;26.93;;;;;;;2.81;86.71;100748.09;1827576;77;21033;-69
2021/10/31 01:47:59;;;;;;;40.20;28.98;;;;;;;2.75;86.78;100747.55;1852025;77;21132;-69
2021/10/31 01:50:39;;;;;;;43.08;29.80;;;;;;;2.73;86.89;100750.41;1853616;77;20947;-70
2021/10/31 01:53:38;;;;;;;41.40;30.35;;;;;;;2.76;86.85;100743.84;1834078;77;21041;-70
2021/10/31 01:56:10;;;;;;;40.15;28.35;;;;;;;2.78;86.81;100742.60;1802351;78;21016;-69
2021/10/31 01:58:41;;;;;;;40.17;29.55;;;;;;;2.81;86.82;100744.05;1844073;77;21497;-69
2021/10/31 02:01:07;;;;;;;45.48;31.48;;;;;;;2.81;86.80;100738.17;1854561;77;20979;-69
2021/10/31 02:03:33;;;;;;;41.35;29.27;;;;;;;2.77;86.96;100740.09;1854786;77;21529;-69
2021/10/31 02:06:01;;;;;;;39.33;28.73;;;;;;;2.77;87.07;100740.94;1841112;77;20943;-69
2021/10/31 02:08:28;;;;;;;40.52;27.95;;;;;;;2.81;86.97;100736.83;1822460;79;21055;-69
2021/10/31 02:10:56;;;;;;;42.48;30.20;;;;;;;2.84;86.87;100732.91;1824930;77;21027;-69
2021/10/31 02:13:26;;;;;;;39.60;28.47;;;;;;;2.86;86.79;100736.24;1809632;77;21013;-69
2021/10/31 02:15:52;;;;;;;42.95;29.27;;;;;;;2.86;86.80;100729.52;1854358;77;20943;-69
2021/10/31 02:18:22;;;;;;;39.63;28.17;;;;;;;2.82;86.91;100733.12;1842611;77;21026;-69
2021/10/31 02:20:51;;;;;;;40.78;28.87;;;;;;;2.82;86.97;100729.08;1838369;77;20947;-69
2021/10/31 02:23:18;;;;;;;42.40;30.05;;;;;;;2.86;86.87;100731.70;1833753;77;21014;-69
2021/10/31 02:25:46;;;;;;;40.90;28.50;;;;;;;2.88;86.78;100724.77;1854413;77;21008;-69
2021/10/31 02:28:13;;;;;;;40.55;27.27;;;;;;;2.87;86.80;100723.92;1836369;77;21607;-69
2021/10/31 02:30:39;;;;;;;41.58;28.95;;;;;;;2.82;86.87;100725.05;1829515;78;20994;-69
2021/10/31 02:33:05;;;;;;;41.08;28.07;;;;;;;2.81;86.95;100719.86;1827321;77;21000;-69
2021/10/31 02:35:33;;;;;;;40.45;27.90;;;;;;;2.83;86.84;100720.51;1834226;77;21018;-69
2021/10/31 02:38:00;;;;;;;38.10;26.37;;;;;;;2.85;86.74;100723.81;1843445;77;21815;-69
2021/10/31 02:40:27;;;;;;;39.45;28.25;;;;;;;2.88;86.72;100722.08;1829643;78;21042;-70
2021/10/31 02:42:54;;;;;;;38.80;27.73;;;;;;;2.86;86.69;100720.95;1825082;77;21043;-69
2021/10/31 02:45:20;;;;;;;38.78;27.35;;;;;;;2.82;86.88;100719.67;1839206;77;21042;-69
2021/10/31 02:47:53;;;;;;;35.63;25.88;;;;;;;2.84;86.95;100724.84;1836099;77;21018;-69
2021/10/31 02:50:25;;;;;;;39.75;27.67;;;;;;;2.86;86.82;100728.17;1829726;77;20939;-69
2021/10/31 02:53:18;;;;;;;35.40;25.02;;;;;;;2.83;86.68;100729.41;1831675;77;21002;-69
2021/10/31 02:56:09;;;;;;;40.40;27.65;;;;;;;2.83;86.63;100726.72;1829280;77;21017;-70
2021/10/31 02:58:58;;;;;;;35.68;25.62;;;;;;;2.81;86.65;100727.92;1817467;78;21016;-69
2021/10/31 03:01:25;;;;;;;41.45;26.93;;;;;;;2.74;86.86;100723.02;1811788;79;21055;-69
2021/10/31 03:03:54;;;;;;;42.13;29.60;;;;;;;2.75;87.06;100722.84;1819048;79;21032;-69
2021/10/31 03:06:20;;;;;;;40.33;27.15;;;;;;;2.79;87.01;100713.86;1786969;80;21064;-69
2021/10/31 03:08:47;;;;;;;43.20;27.20;;;;;;;2.82;86.94;100721.53;1795818;79;20984;-70
2021/10/31 03:11:13;;;;;;;41.00;28.07;;;;;;;2.82;86.87;100712.95;1805648;79;21569;-70
2021/10/31 03:13:41;;;;;;;36.83;25.97;;;;;;;2.84;86.82;100715.42;1786727;79;21125;-69
2021/10/31 03:16:09;;;;;;;36.60;25.88;;;;;;;2.84;86.90;100716.77;1811188;79;21103;-70
2021/10/31 03:18:37;;;;;;;37.83;27.48;;;;;;;2.80;86.97;100718.22;1760538;81;21036;-69
2021/10/31 03:21:04;;;;;;;37.88;27.02;;;;;;;2.81;86.89;100717.17;1765823;81;21535;-69
2021/10/31 03:23:30;;;;;;;40.85;27.32;;;;;;;2.82;86.75;100712.11;1736703;82;21047;-69
2021/10/31 03:25:57;;;;;;;37.50;26.17;;;;;;;2.83;86.67;100708.41;1763560;81;21001;-69
2021/10/31 03:28:23;;;;;;;36.73;26.45;;;;;;;2.81;86.68;100709.09;1761892;81;20993;-70
2021/10/31 03:30:50;;;;;;;36.77;26.85;;;;;;;2.80;86.68;100710.95;1761559;81;21371;-69
2021/10/31 03:33:16;;;;;;;37.83;26.35;;;;;;;2.77;86.77;100710.52;1761913;81;20993;-70
2021/10/31 03:35:43;;;;;;;35.15;25.77;;;;;;;2.74;86.86;100712.27;1763627;81;21025;-70
2021/10/31 03:38:10;;;;;;;;;;;;;;;2.74;86.79;100711.75;1764788;80;21064;-70
2021/10/31 03:40:38;;;;;;;39.53;26.60;;;;;;;2.76;86.69;100716.44;1764652;81;20414;-70
2021/10/31 03:43:04;;;;;;;37.93;24.67;;;;;;;2.72;86.69;100717.86;1762170;81;21610;-70
2021/10/31 03:45:30;;;;;;;35.73;23.80;;;;;;;2.74;86.68;100709.58;1765063;80;21013;-70
2021/10/31 03:47:57;;;;;;;42.35;26.90;;;;;;;2.73;86.64;100710.08;1752775;81;21077;-70
2021/10/31 03:50:23;;;;;;;38.35;26.12;;;;;;;2.67;86.69;100706.84;1731051;83;21100;-70
2021/10/31 03:52:50;;;;;;;40.52;27.62;;;;;;;2.68;86.75;100714.41;1731709;81;21116;-70
2021/10/31 03:55:17;;;;;;;39.25;25.77;;;;;;;2.68;86.67;100700.45;1731283;82;21480;-70
2021/10/31 03:57:44;;;;;;;37.08;26.42;;;;;;;2.68;86.52;100699.11;1743285;80;21054;-70
2021/10/31 04:00:12;;;;;;;34.58;23.83;;;;;;;2.68;86.45;100703.65;1788821;80;20987;-70
2021/10/31 04:02:38;;;;;;;37.50;26.95;;;;;;;2.67;86.41;100706.02;1770453;80;21022;-70
2021/10/31 04:05:06;;;;;;;42.30;26.75;;;;;;;2.61;86.41;100698.74;1791938;80;21861;-70
2021/10/31 04:07:32;;;;;;;39.05;25.65;;;;;;;2.58;86.55;100694.60;1798354;79;21067;-71
2021/10/31 04:10:02;;;;;;;36.35;25.90;;;;;;;2.59;86.55;100695.44;1794095;79;21342;-71
2021/10/31 04:12:30;;;;;;;34.60;23.80;;;;;;;2.58;86.51;100694.60;1790609;80;21034;-70
2021/10/31 04:14:57;;;;;;;36.93;25.60;;;;;;;2.60;86.52;100693.88;1790752;80;20975;-70
2021/10/31 04:17:23;;;;;;;34.58;25.27;;;;;;;2.62;86.57;100683.78;1791286;80;21007;-70
2021/10/31 04:19:50;;;;;;;36.50;25.25;;;;;;;2.58;86.67;100685.19;1790826;80;21085;-70
2021/10/31 04:22:17;;;;;;;34.20;24.15;;;;;;;2.56;86.72;100679.16;1790906;80;20990;-70
2021/10/31 04:24:43;;;;;;;33.13;24.30;;;;;;;2.58;86.68;100683.02;1798803;80;21575;-70
2021/10/31 04:27:09;;;;;;;33.88;23.05;;;;;;;2.59;86.56;100680.11;1798197;80;20992;-70
2021/10/31 04:29:36;;;;;;;34.10;23.12;;;;;;;2.59;86.48;100681.45;1791406;80;21493;-71
2021/10/31 04:32:03;;;;;;;33.25;22.98;;;;;;;2.59;86.45;100673.39;1791192;80;21005;-70
2021/10/31 04:34:30;;;;;;;34.30;23.95;;;;;;;2.59;86.48;100675.27;1795218;80;21008;-70
2021/10/31 04:36:57;;;;;;;36.28;24.07;;;;;;;2.54;86.71;100676.37;1791115;80;21120;-70
2021/10/31 04:39:23;;;;;;;34.67;23.50;;;;;;;2.56;86.75;100676.98;1790668;80;21093;-70
2021/10/31 04:41:50;;;;;;;33.23;23.67;;;;;;;2.59;86.68;100675.27;1791033;80;21077;-70
2021/10/31 04:44:17;;;;;;;31.30;22.65;;;;;;;2.62;86.51;100673.53;1790543;80;21073;-70
2021/10/31 04:46:43;;;;;;;32.30;22.82;;;;;;;2.62;86.42;100674.87;1791630;80;21524;-70
2021/10/31 04:49:10;;;;;;;34.00;24.02;;;;;;;2.57;86.45;100674.11;1766616;81;21029;-70
2021/10/31 04:51:36;;;;;;;32.67;23.77;;;;;;;2.54;86.48;100673.68;1799127;80;21528;-70
2021/10/31 04:54:04;;;;;;;33.28;23.00;;;;;;;2.53;86.41;100677.38;1798383;79;21067;-70
2021/10/31 04:56:30;;;;;;;32.25;22.40;;;;;;;2.53;86.35;100680.07;1797807;80;21087;-70
2021/10/31 04:58:58;;;;;;;36.77;24.12;;;;;;;2.54;86.30;100681.23;1804880;79;21037;-70
2021/10/31 05:01:25;;;;;;;33.60;22.50;;;;;;;2.53;86.25;100685.45;1811694;79;21064;-70
2021/10/31 05:03:51;;;;;;;32.45;22.15;;;;;;;2.49;86.37;100683.16;1778005;80;21004;-70
2021/10/31 05:06:17;;;;;;;33.53;23.22;;;;;;;2.48;86.44;100686.03;1777916;80;21511;-70
2021/10/31 05:08:44;;;;;;;35.83;22.05;;;;;;;2.49;86.33;100680.47;1764511;80;21380;-70
2021/10/31 05:11:10;;;;;;;32.60;21.87;;;;;;;2.51;86.24;100678.94;1758426;80;21142;-70
2021/10/31 05:13:36;;;;;;;;;;;;;;;2.53;86.17;100672.84;1774675;80;21036;-70
2021/10/31 05:16:03;;;;;;;35.78;23.65;;;;;;;2.54;86.16;100676.37;1771162;80;20460;-70
2021/10/31 05:18:30;;;;;;;33.23;23.50;;;;;;;2.44;86.38;100680.75;1772500;80;21043;-70
2021/10/31 05:20:57;;;;;;;32.53;24.12;;;;;;;2.42;86.60;100684.97;1776338;79;20992;-71
2021/10/31 05:23:23;;;;;;;31.35;23.05;;;;;;;2.47;86.51;100683.88;1795800;80;21039;-70
2021/10/31 05:25:49;;;;;;;35.83;24.45;;;;;;;2.51;86.42;100685.66;1776811;80;20991;-69
2021/10/31 05:28:15;;;;;;;32.48;22.58;;;;;;;2.53;86.36;100686.80;1793361;80;21063;-70
2021/10/31 05:30:42;;;;;;;;;;;;;;;2.56;86.30;100689.08;1767330;80;21570;-72
2021/10/31 05:33:08;;;;;;;36.65;25.32;;;;;;;2.57;86.30;100689.41;1768201;81;20419;-71
2021/10/31 05:35:35;;;;;;;39.08;27.70;;;;;;;2.48;86.59;100690.89;1753518;81;21016;-73
2021/10/31 05:38:02;;;;;;;;;;;;;;;2.50;86.77;100690.20;1763054;81;21084;-70
2021/10/31 05:40:29;;;;;;;36.55;24.75;;;;;;;2.57;86.73;100688.06;1760808;81;20115;-70
2021/10/31 05:42:55;;;;;;;36.63;25.97;;;;;;;2.61;86.77;100689.34;1760452;81;21045;-70
2021/10/31 05:45:22;;;;;;;50.00;33.70;;;;;;;2.71;86.76;100693.33;1762567;81;20980;-70
2021/10/31 05:47:52;;;;;;;38.30;27.50;;;;;;;2.78;86.72;100693.37;1776936;80;21476;-69
2021/10/31 05:50:18;;;;;;;40.10;27.10;;;;;;;2.84;86.71;100681.81;1756416;81;21519;-70
2021/10/31 05:52:45;;;;;;;41.88;31.00;;;;;;;2.88;86.78;100683.08;1768241;81;21052;-70
2021/10/31 05:55:13;;;;;;;36.73;25.57;;;;;;;2.95;86.88;100690.66;1760894;81;21001;-69
2021/10/31 05:57:40;;;;;;;32.88;24.27;;;;;;;3.08;86.79;100683.19;1760483;81;21036;-70
2021/10/31 06:00:08;;;;;;;36.95;25.37;;;;;;;3.20;86.66;100682.91;1760370;81;21012;-70
2021/10/31 06:02:45;;;;;;;;;;;;;;;3.29;86.59;100691.98;1763047;81;21535;-69
2021/10/31 06:05:12;;;;;;;35.15;24.65;;;;;;;3.41;86.55;100682.27;1760770;81;20106;-69
2021/10/31 06:07:41;;;;;;;35.00;27.20;;;;;;;3.47;86.68;100686.84;1760189;81;21072;-70
2021/10/31 06:10:09;;;;;;;34.13;25.32;;;;;;;3.68;86.55;100689.09;1759369;81;21487;-70
2021/10/31 06:12:39;;;;;;;33.50;23.75;;;;;;;3.95;86.21;100692.96;1780255;80;21052;-70
2021/10/31 06:15:07;;;;;;;33.02;22.42;;;;;;;4.24;85.79;100683.66;1792559;79;21051;-70
2021/10/31 06:17:34;;;;;;;30.85;22.02;;;;;;;4.50;85.51;100692.22;1773501;80;21020;-70
2021/10/31 06:20:00;;;;;;;30.90;22.00;;;;;;;4.79;85.23;100689.58;1743801;82;21015;-70
2021/10/31 06:22:26;;;;;;;;;;;;;;;5.07;84.57;100691.98;1746109;81;21138;-70
2021/10/31 06:24:53;;;;;;;31.12;21.68;;;;;;;5.18;83.69;100700.27;1743453;82;20116;-70
2021/10/31 06:27:19;;;;;;;28.40;21.05;;;;;;;5.25;83.30;100694.32;1744313;80;21024;-70
2021/10/31 06:29:45;;;;;;;31.00;22.82;;;;;;;5.39;82.82;100699.97;1790447;80;21093;-70
2021/10/31 06:32:13;;;;;;;30.95;23.57;;;;;;;5.57;82.55;100707.36;1790037;80;21035;-71
2021/10/31 06:34:40;;;;;;;28.20;22.55;;;;;;;5.84;82.12;100704.01;1790311;80;21544;-70
2021/10/31 06:37:06;;;;;;;37.55;27.52;;;;;;;6.05;81.25;100709.09;1790404;80;21062;-70
2021/10/31 06:39:32;;;;;;;28.92;22.62;;;;;;;6.13;80.55;100703.95;1790167;80;21054;-70
2021/10/31 06:41:59;;;;;;;28.17;21.10;;;;;;;6.29;80.36;100704.23;1790477;80;21536;-70
2021/10/31 06:44:26;;;;;;;24.37;19.37;;;;;;;6.51;79.82;100710.08;1790073;80;21513;-71
2021/10/31 06:46:53;;;;;;;26.10;20.08;;;;;;;6.66;78.83;100704.33;1790597;80;21036;-71
2021/10/31 06:49:19;;;;;;;24.52;19.27;;;;;;;6.74;78.18;100714.33;1764697;81;21034;-71
2021/10/31 06:51:45;;;;;;;;;;;;;;;6.85;77.94;100708.18;1814330;79;21083;-70
2021/10/31 06:54:15;;;;;;;27.67;21.33;;;;;;;7.07;77.53;100711.28;1812195;79;20110;-70
2021/10/31 06:56:41;;;;;;;29.18;21.17;;;;;;;7.24;77.03;100697.44;1811498;79;21064;-70
2021/10/31 06:59:08;;;;;;;28.50;20.92;;;;;;;7.44;76.61;100697.17;1795048;80;21560;-71
2021/10/31 07:01:34;;;;;;;28.38;22.32;;;;;;;7.54;75.53;100699.36;1773519;80;21058;-71
2021/10/31 07:04:03;;;;;;;;;;;;;;;7.59;74.79;100696.78;1749465;80;21079;-71
2021/10/31 07:06:29;;;;;;;25.62;20.92;;;;;;;7.74;74.50;100690.42;1787460;80;20403;-71
2021/10/31 07:08:56;;;;;;;27.82;21.77;;;;;;;7.75;74.13;100689.38;1787554;80;21093;-71
2021/10/31 07:11:22;;;;;;;24.92;20.55;;;;;;;7.88;73.20;100698.14;1786824;80;21067;-71
2021/10/31 07:13:48;;;;;;;28.15;21.33;;;;;;;7.92;72.23;100702.05;1787382;80;21505;-71
2021/10/31 07:16:16;;;;;;;26.93;20.48;;;;;;;7.96;71.93;100695.11;1786866;80;21542;-71
2021/10/31 07:18:43;;;;;;;30.88;21.70;;;;;;;8.14;72.10;100694.22;1787252;80;21014;-71
2021/10/31 07:21:09;;;;;;;25.82;21.55;;;;;;;8.28;71.18;100695.69;1787337;80;21065;-71
2021/10/31 07:23:36;;;;;;;29.67;21.35;;;;;;;8.54;71.02;100699.83;1787034;80;21058;-71
2021/10/31 07:26:02;;;;;;;27.15;20.75;;;;;;;8.88;70.77;100706.33;1787484;80;21027;-71
2021/10/31 07:28:29;;;;;;;23.62;19.80;;;;;;;9.13;69.96;100704.70;1787308;80;21011;-70
2021/10/31 07:30:57;;;;;;;24.10;19.60;;;;;;;9.31;69.29;100698.59;1786974;80;21011;-71
2021/10/31 07:33:24;;;;;;;22.82;18.82;;;;;;;9.55;68.63;100698.52;1787468;80;20987;-71
2021/10/31 07:35:52;;;;;;;20.88;17.35;;;;;;;9.69;68.08;100699.35;1787222;80;20991;-71
2021/10/31 07:38:19;;;;;;;23.00;19.48;;;;;;;9.93;67.17;100694.63;1787325;80;21039;-71
2021/10/31 07:40:46;;;;;;;23.55;19.05;;;;;;;10.14;66.70;100698.02;1787020;80;21085;-71
2021/10/31 07:43:12;;;;;;;60.88;45.50;;;;;;;10.36;65.96;100697.59;1787156;80;21066;-71
2021/10/31 07:45:40;;;;;;;;;;;;;;;10.55;65.30;100692.73;1789658;80;21522;-72
2021/10/31 07:48:07;;;;;;;;;;;;;;;10.70;64.69;100698.39;1789826;80;20119;-71
2021/10/31 07:50:36;;;;;;;672.25;558.58;;;;;;;10.69;63.77;100697.30;1787355;80;20136;-71
2021/10/31 07:53:04;;;;;;;267.98;186.00;;;;;;;10.66;63.38;100695.08;1764022;80;21052;-74
2021/10/31 07:55:33;;;;;;;88.60;59.88;;;;;;;11.18;63.82;100703.19;1788507;80;21011;-73
2021/10/31 07:58:01;;;;;;;48.42;37.15;;;;;;;11.74;61.87;100702.53;1789925;80;21060;-74
2021/10/31 08:00:28;;;;;;;47.08;40.25;;;;;;;11.88;60.31;100697.78;1794795;80;21066;-71
2021/10/31 08:02:55;;;;;;;27.95;23.77;;;;;;;11.95;59.64;100700.30;1764983;80;21246;-74
2021/10/31 08:05:23;;;;;;;40.92;34.40;;;;;;;12.04;59.52;100702.03;1782678;80;21033;-73
2021/10/31 08:07:49;;;;;;;58.38;44.58;;;;;;;12.23;58.73;100700.03;1767514;80;21040;-73
2021/10/31 08:10:15;;;;;;;;;;;;;;;12.26;57.32;100698.14;1739121;81;21001;-73
2021/10/31 08:12:42;;;;;;;33.85;28.17;;;;;;;12.21;57.22;100692.65;1757654;81;20412;-74
2021/10/31 08:15:09;;;;;;;27.13;22.05;;;;;;;12.23;57.91;100687.74;1760758;81;21052;-74
2021/10/31 08:17:35;;;;;;;39.27;30.08;;;;;;;12.58;58.01;100687.74;1768953;81;21119;-74
2021/10/31 08:20:04;;;;;;;23.35;18.60;;;;;;;12.86;56.85;100686.03;1769502;81;21080;-73
2021/10/31 08:22:31;;;;;;;17.80;15.15;;;;;;;13.17;55.80;100685.70;1793674;79;21549;-72
2021/10/31 08:24:58;;;;;;;26.02;20.27;;;;;;;13.37;54.58;100687.16;1806045;79;21041;-72
2021/10/31 08:27:26;;;;;;;35.88;27.37;;;;;;;13.59;54.80;100687.80;1799220;79;21491;-72
2021/10/31 08:29:53;;;;;;;25.90;21.20;;;;;;;13.90;54.35;100687.33;1762623;80;21550;-72
2021/10/31 08:32:22;;;;;;;;;;;;;;;14.17;53.43;100688.48;1773450;81;21025;-72
2021/10/31 08:34:48;;;;;;;15.50;13.70;;;;;;;14.32;52.88;100685.73;1771219;81;20126;-72
2021/10/31 08:37:15;;;;;;;;;;;;;;;14.31;52.30;100686.28;1777048;79;21032;-73
2021/10/31 08:39:42;;;;;;;;;;;;;;;14.52;51.35;100684.95;1796202;80;20104;-73
2021/10/31 08:42:08;;;;;;;14.45;10.18;;;;;;;14.42;50.85;100685.22;1798115;80;20096;-72
2021/10/31 08:44:37;;;;;;;10.88;9.50;;;;;;;14.36;50.44;100680.02;1781333;79;21507;-78
2021/10/31 08:47:05;;;;;;;10.32;8.03;;;;;;;14.22;50.40;100678.34;1766132;80;21018;-79
2021/10/31 08:49:32;;;;;;;9.23;8.13;;;;;;;14.48;51.09;100679.75;1772874;80;21000;-79
2021/10/31 08:52:04;;;;;;;11.45;8.25;;;;;;;14.75;49.63;100672.87;1775398;80;21059;-80
2021/10/31 08:54:27;;;;;;;14.28;9.43;;;;;;;14.79;48.60;100664.37;1770860;81;21029;-81
2021/10/31 08:56:54;;;;;;;10.72;8.25;;;;;;;14.52;48.26;100666.61;1741795;81;21048;-80
2021/10/31 08:59:20;;;;;;;11.83;8.90;;;;;;;14.29;48.95;100664.37;1765403;81;21019;-78
2021/10/31 09:01:47;;;;;;;9.38;7.83;;;;;;;14.43;49.42;100663.59;1742696;81;21589;-81
2021/10/31 09:04:13;;;;;;;12.88;8.08;;;;;;;14.51;48.38;100660.84;1744805;81;21024;-79
2021/10/31 09:06:40;;;;;;;;;;;;;;;14.49;49.05;100661.66;1739495;81;21096;-79
2021/10/31 09:09:06;;;;;;;11.40;8.73;;;;;;;14.62;48.56;100657.00;1763670;80;20493;-78
2021/10/31 09:11:32;;;;;;;12.53;9.33;;;;;;;14.62;48.59;100654.80;1762774;81;21037;-78
2021/10/31 09:13:59;;;;;;;15.40;10.30;;;;;;;14.72;48.13;100656.16;1763428;81;21507;-76
2021/10/31 09:16:26;;;;;;;;;;;;;;;14.79;48.24;100660.26;1773621;80;21056;-77
2021/10/31 09:18:53;;;;;;;15.85;10.55;;;;;;;14.99;48.24;100652.52;1775604;80;20120;-77
2021/10/31 09:21:23;;;;;;;13.72;10.28;;;;;;;15.08;47.84;100651.41;1749096;80;21526;-77
2021/10/31 09:23:47;;;;;;;17.73;9.73;;;;;;;15.14;47.47;100656.59;1766841;80;21052;-78
2021/10/31 09:26:14;;;;;;;16.52;9.88;;;;;;;14.99;47.28;100647.58;1765106;81;21029;-77
2021/10/31 09:28:41;;;;;;;13.35;9.43;;;;;;;14.99;47.84;100644.30;1760185;80;21485;-77
2021/10/31 09:31:08;;;;;;;11.83;8.30;;;;;;;15.23;47.66;100637.65;1767771;80;21078;-77
2021/10/31 09:33:35;;;;;;;;;;;;;;;15.36;46.97;100636.48;1768201;81;21637;-77
2021/10/31 09:36:04;;;;;;;11.97;7.67;;;;;;;15.47;45.99;100629.02;1765380;81;20134;-77
2021/10/31 09:38:31;;;;;;;13.60;7.70;;;;;;;15.10;45.70;100636.86;1761855;81;21063;-78
2021/10/31 09:40:58;;;;;;;11.03;7.85;;;;;;;14.70;46.31;100638.61;1765092;80;20993;-76
2021/10/31 09:43:29;;;;;;;10.95;7.53;;;;;;;14.37;47.22;100637.30;1773791;80;20953;-77
2021/10/31 09:45:55;;;;;;;13.95;8.00;;;;;;;14.27;47.86;100636.45;1763972;80;21044;-77
2021/10/31 09:48:22;;;;;;;11.93;8.28;;;;;;;14.26;48.26;100636.17;1734445;81;20989;-77
2021/10/31 09:50:50;;;;;;;12.75;8.50;;;;;;;14.27;48.13;100634.54;1759574;81;21079;-77
2021/10/31 09:53:20;;;;;;;13.55;8.38;;;;;;;14.28;47.89;100626.58;1737727;80;20980;-78
2021/10/31 09:55:50;;;;;;;13.25;9.30;;;;;;;14.11;48.29;100636.98;1766293;80;21049;-78
2021/10/31 09:58:32;;;;;;;14.18;8.65;;;;;;;14.19;48.80;100642.47;1765714;81;21563;-78
2021/10/31 10:00:54;;;;;;;16.55;9.68;;;;;;;14.29;48.18;100629.59;1763187;80;21097;-77
2021/10/31 10:03:41;;;;;;;12.53;9.78;;;;;;;14.28;48.45;100625.20;1764969;80;21037;-81
2021/10/31 10:06:20;;;;;;;14.95;9.35;;;;;;;14.40;48.03;100624.97;1754772;81;21058;-78
2021/10/31 10:09:06;;;;;;;13.38;8.78;;;;;;;14.19;47.93;100615.91;1755359;81;21468;-79
2021/10/31 10:11:40;;;;;;;14.87;9.30;;;;;;;13.93;49.18;100617.81;1761445;80;21091;-75
2021/10/31 10:14:19;;;;;;;12.95;9.35;;;;;;;13.93;49.18;100617.81;1764473;80;21497;-76
2021/10/31 10:16:47;;;;;;;11.88;9.38;;;;;;;14.16;48.73;100615.09;1764658;80;21104;-77
2021/10/31 10:19:18;;;;;;;17.25;9.30;;;;;;;14.47;48.34;100604.13;1764459;81;20963;-77
2021/10/31 10:22:02;;;;;;;16.02;9.65;;;;;;;14.65;47.71;100603.55;1761596;81;21078;-75
2021/10/31 10:24:31;;;;;;;12.33;8.50;;;;;;;15.01;47.15;100594.13;1758166;80;21495;-71
2021/10/31 10:27:02;;;;;;;11.53;7.78;;;;;;;15.20;45.98;100591.02;1762845;80;21073;-78
2021/10/31 10:29:31;;;;;;;11.45;6.90;;;;;;;15.33;45.99;100578.08;1758583;80;21029;-77
2021/10/31 10:32:04;;;;;;;11.48;7.50;;;;;;;15.60;45.42;100576.83;1754362;81;21044;-77
2021/10/31 10:34:48;;;;;;;9.88;6.62;;;;;;;15.61;45.31;100574.36;1749569;81;21022;-77
2021/10/31 10:37:17;;;;;;;10.85;6.45;;;;;;;15.54;45.18;100568.38;1748760;81;21040;-77
2021/10/31 10:39:47;;;;;;;9.85;7.17;;;;;;;15.51;45.46;100564.28;1762990;80;21449;-78
2021/10/31 10:42:31;;;;;;;11.70;6.62;;;;;;;15.73;44.44;100558.38;1739454;81;21202;-72
2021/10/31 10:45:02;;;;;;;11.95;7.30;;;;;;;15.83;44.29;100556.37;1738902;81;21057;-72
2021/10/31 10:47:29;;;;;;;10.85;7.65;;;;;;;16.11;43.68;100557.50;1764748;80;21509;-72
2021/10/31 10:49:56;;;;;;;10.90;7.12;;;;;;;16.20;42.94;100549.44;1762370;80;21064;-72
2021/10/31 10:52:34;;;;;;;13.95;7.85;;;;;;;16.38;43.06;100545.97;1758166;81;21068;-72
2021/10/31 10:55:23;;;;;;;9.65;6.62;;;;;;;16.76;42.36;100549.14;1758807;81;21083;-72
2021/10/31 10:57:52;;;;;;;9.50;7.03;;;;;;;17.03;41.76;100533.98;1758092;81;21091;-72
2021/10/31 11:00:31;;;;;;;16.93;11.33;;;;;;;17.33;41.07;100537.67;1773980;79;21032;-72
2021/10/31 11:03:04;;;;;;;22.98;15.50;;;;;;;17.72;41.13;100540.14;1797847;80;21566;-72
2021/10/31 11:05:44;;;;;;;18.82;15.50;;;;;;;18.27;39.63;100529.57;1797651;80;21565;-72
2021/10/31 11:08:14;;;;;;;12.07;9.20;;;;;;;18.55;38.90;100530.45;1796642;80;21075;-72
2021/10/31 11:10:54;;;;;;;9.18;6.72;;;;;;;18.62;38.54;100539.69;1783330;79;21056;-84
2021/10/31 11:15:06;;;;;;;8.20;6.28;;;;;;;18.98;37.46;100530.95;1801358;79;22920;-69
2021/10/31 11:17:36;;;;;;;11.50;8.48;;;;;;;18.69;37.42;100536.79;1734922;81;21003;-69
2021/10/31 11:20:04;;;;;;;8.80;6.75;;;;;;;18.69;37.12;100531.83;1722604;83;21047;-69
2021/10/31 11:22:31;;;;;;;8.73;7.12;;;;;;;18.30;37.41;100522.63;1694164;83;21090;-69
2021/10/31 11:25:00;;;;;;;11.30;6.60;;;;;;;18.05;37.95;100532.16;1690818;85;21119;-68
2021/10/31 11:27:28;;;;;;;9.48;6.22;;;;;;;18.28;38.76;100527.64;1716024;83;21042;-69
2021/10/31 11:29:56;;;;;;;10.88;6.85;;;;;;;18.74;37.67;100528.98;1719672;83;21966;-69
2021/10/31 11:32:24;;;;;;;12.43;9.28;;;;;;;19.15;37.50;100519.27;1719637;83;21081;-69
2021/10/31 11:34:54;;;;;;;11.45;8.33;;;;;;;19.69;36.55;100513.62;1701702;83;21081;-69